< < Back
Terminal Aerodrome Forecast


Current Version              Previous Versions:   1  2  3  4  5  6  7  8  9  

Terminal Aerodrome Forecast

545
FTUS42 KILM 031755 CCA
TAFILM
TAF COR
KILM 031755Z 0318/0418 20009KT P6SM VCSH SCT020 BKN040 BKN150
      TEMPO 0318/0320 BKN025
     FM032000 22011KT P6SM VCSH SCT025 BKN040
      TEMPO 0321/0401 BKN025 OVC040
     FM040100 22006KT P6SM VCSH SCT050 BKN100
     FM040500 22006KT 5SM BR VCSH SCT015 BKN050
      TEMPO 0406/0410 5SM TS SCT015 BKN025CB
     FM041000 25005KT 4SM BR VCSH SCT007 BKN050=

Latest METAR

374
SAUS70 KWBC 031800 RRG
MTRILM
METAR KILM 031753Z AUTO 22006KT 10SM BKN020 23/19 A2983 RMK AO2 SLP101
60096 T02330194 10239 20183 56008


USA.gov is the U.S. government's official web portal to all federal, state and local government web resources and services.